sensor_id;sensor_type;location;lat;lon;timestamp;P1;durP1;ratioP1;P2;durP2;ratioP2
41887;SDS011;63122;52.424;13.458;2023-04-24T00:01:51;5.00;;;4.43;;
41887;SDS011;63122;52.424;13.458;2023-04-24T00:03:52;4.90;;;4.40;;
41887;SDS011;63122;52.424;13.458;2023-04-24T00:05:48;4.43;;;4.03;;
41887;SDS011;63122;52.424;13.458;2023-04-24T00:07:44;8.23;;;4.30;;
41887;SDS011;63122;52.424;13.458;2023-04-24T00:09:40;4.72;;;4.00;;
41887;SDS011;63122;52.424;13.458;2023-04-24T00:11:37;4.75;;;4.22;;
41887;SDS011;63122;52.424;13.458;2023-04-24T00:13:33;4.45;;;4.05;;
41887;SDS011;63122;52.424;13.458;2023-04-24T00:15:28;5.80;;;4.10;;
41887;SDS011;63122;52.424;13.458;2023-04-24T00:17:24;4.50;;;3.88;;
41887;SDS011;63122;52.424;13.458;2023-04-24T00:19:22;4.63;;;4.10;;
41887;SDS011;63122;52.424;13.458;2023-04-24T00:21:17;6.25;;;4.60;;
41887;SDS011;63122;52.424;13.458;2023-04-24T00:23:13;5.85;;;3.80;;
41887;SDS011;63122;52.424;13.458;2023-04-24T00:25:09;7.55;;;4.95;;
41887;SDS011;63122;52.424;13.458;2023-04-24T00:27:04;6.03;;;4.88;;
41887;SDS011;63122;52.424;13.458;2023-04-24T00:29:00;6.63;;;4.57;;
41887;SDS011;63122;52.424;13.458;2023-04-24T00:30:55;5.20;;;3.97;;
41887;SDS011;63122;52.424;13.458;2023-04-24T00:32:51;5.63;;;4.18;;
41887;SDS011;63122;52.424;13.458;2023-04-24T00:34:49;4.68;;;4.22;;
41887;SDS011;63122;52.424;13.458;2023-04-24T00:36:45;5.85;;;4.57;;
41887;SDS011;63122;52.424;13.458;2023-04-24T00:38:42;5.50;;;4.05;;
41887;SDS011;63122;52.424;13.458;2023-04-24T00:40:41;6.57;;;4.30;;
41887;SDS011;63122;52.424;13.458;2023-04-24T00:42:36;4.72;;;4.28;;
41887;SDS011;63122;52.424;13.458;2023-04-24T00:44:32;6.45;;;4.63;;
41887;SDS011;63122;52.424;13.458;2023-04-24T00:46:28;5.22;;;4.72;;
41887;SDS011;63122;52.424;13.458;2023-04-24T00:48:25;4.88;;;4.32;;
41887;SDS011;63122;52.424;13.458;2023-04-24T00:50:24;5.38;;;4.88;;
41887;SDS011;63122;52.424;13.458;2023-04-24T00:52:19;7.05;;;4.20;;
41887;SDS011;63122;52.424;13.458;2023-04-24T00:54:16;9.10;;;4.40;;
41887;SDS011;63122;52.424;13.458;2023-04-24T00:56:12;7.97;;;4.82;;
41887;SDS011;63122;52.424;13.458;2023-04-24T00:58:08;5.20;;;4.50;;
41887;SDS011;63122;52.424;13.458;2023-04-24T01:00:05;6.40;;;4.78;;
41887;SDS011;63122;52.424;13.458;2023-04-24T01:02:02;5.72;;;3.83;;
41887;SDS011;63122;52.424;13.458;2023-04-24T01:03:58;6.05;;;4.43;;
41887;SDS011;63122;52.424;13.458;2023-04-24T01:05:57;7.18;;;4.50;;
41887;SDS011;63122;52.424;13.458;2023-04-24T01:07:53;5.60;;;4.53;;
41887;SDS011;63122;52.424;13.458;2023-04-24T01:09:48;5.25;;;4.43;;
41887;SDS011;63122;52.424;13.458;2023-04-24T01:11:43;8.48;;;4.60;;
41887;SDS011;63122;52.424;13.458;2023-04-24T01:13:39;6.53;;;5.10;;
41887;SDS011;63122;52.424;13.458;2023-04-24T01:15:37;6.17;;;5.20;;
41887;SDS011;63122;52.424;13.458;2023-04-24T01:17:32;6.05;;;4.72;;
41887;SDS011;63122;52.424;13.458;2023-04-24T01:19:27;5.85;;;4.90;;
41887;SDS011;63122;52.424;13.458;2023-04-24T01:21:26;5.63;;;5.03;;
41887;SDS011;63122;52.424;13.458;2023-04-24T01:23:24;10.30;;;4.88;;
41887;SDS011;63122;52.424;13.458;2023-04-24T01:25:20;7.10;;;5.00;;
41887;SDS011;63122;52.424;13.458;2023-04-24T01:27:16;5.50;;;4.93;;
41887;SDS011;63122;52.424;13.458;2023-04-24T01:29:11;7.30;;;6.07;;
41887;SDS011;63122;52.424;13.458;2023-04-24T01:31:07;6.13;;;4.97;;
41887;SDS011;63122;52.424;13.458;2023-04-24T01:33:02;6.80;;;5.27;;
41887;SDS011;63122;52.424;13.458;2023-04-24T01:34:57;5.97;;;5.37;;
41887;SDS011;63122;52.424;13.458;2023-04-24T01:36:53;6.00;;;4.70;;
41887;SDS011;63122;52.424;13.458;2023-04-24T01:38:51;6.13;;;4.80;;
41887;SDS011;63122;52.424;13.458;2023-04-24T01:40:47;6.83;;;5.20;;
41887;SDS011;63122;52.424;13.458;2023-04-24T01:42:42;6.90;;;4.77;;
41887;SDS011;63122;52.424;13.458;2023-04-24T01:44:37;6.73;;;5.07;;
41887;SDS011;63122;52.424;13.458;2023-04-24T01:46:33;9.40;;;5.00;;
41887;SDS011;63122;52.424;13.458;2023-04-24T01:48:29;5.73;;;5.13;;
41887;SDS011;63122;52.424;13.458;2023-04-24T01:50:25;7.97;;;5.30;;
41887;SDS011;63122;52.424;13.458;2023-04-24T01:52:20;9.80;;;5.17;;
41887;SDS011;63122;52.424;13.458;2023-04-24T01:54:18;9.27;;;5.43;;
41887;SDS011;63122;52.424;13.458;2023-04-24T01:56:13;12.23;;;5.77;;
41887;SDS011;63122;52.424;13.458;2023-04-24T01:58:09;6.63;;;5.17;;
41887;SDS011;63122;52.424;13.458;2023-04-24T02:00:05;8.70;;;5.53;;
41887;SDS011;63122;52.424;13.458;2023-04-24T02:01:58;5.80;;;5.10;;
41887;SDS011;63122;52.424;13.458;2023-04-24T02:03:54;7.73;;;5.57;;
41887;SDS011;63122;52.424;13.458;2023-04-24T02:05:49;7.80;;;5.77;;
41887;SDS011;63122;52.424;13.458;2023-04-24T02:07:45;6.53;;;5.60;;
41887;SDS011;63122;52.424;13.458;2023-04-24T02:09:43;6.07;;;4.97;;
41887;SDS011;63122;52.424;13.458;2023-04-24T02:11:38;9.87;;;6.17;;
41887;SDS011;63122;52.424;13.458;2023-04-24T02:13:33;5.90;;;5.30;;
41887;SDS011;63122;52.424;13.458;2023-04-24T02:15:28;6.47;;;5.40;;
41887;SDS011;63122;52.424;13.458;2023-04-24T02:17:24;6.40;;;5.70;;
41887;SDS011;63122;52.424;13.458;2023-04-24T02:19:19;7.20;;;6.23;;
41887;SDS011;63122;52.424;13.458;2023-04-24T02:21:14;10.77;;;5.77;;
41887;SDS011;63122;52.424;13.458;2023-04-24T02:23:10;6.47;;;5.70;;
41887;SDS011;63122;52.424;13.458;2023-04-24T02:25:09;7.23;;;5.53;;
41887;SDS011;63122;52.424;13.458;2023-04-24T02:27:04;7.63;;;5.57;;
41887;SDS011;63122;52.424;13.458;2023-04-24T02:28:59;6.40;;;5.80;;
41887;SDS011;63122;52.424;13.458;2023-04-24T02:30:55;9.33;;;5.93;;
41887;SDS011;63122;52.424;13.458;2023-04-24T02:32:50;7.73;;;6.23;;
41887;SDS011;63122;52.424;13.458;2023-04-24T02:34:46;9.83;;;5.47;;
41887;SDS011;63122;52.424;13.458;2023-04-24T02:36:41;6.27;;;5.67;;
41887;SDS011;63122;52.424;13.458;2023-04-24T02:38:36;9.90;;;6.17;;
41887;SDS011;63122;52.424;13.458;2023-04-24T02:40:34;9.97;;;6.20;;
41887;SDS011;63122;52.424;13.458;2023-04-24T02:42:29;9.00;;;5.80;;
41887;SDS011;63122;52.424;13.458;2023-04-24T02:44:24;6.53;;;5.57;;
41887;SDS011;63122;52.424;13.458;2023-04-24T02:46:19;7.10;;;5.83;;
41887;SDS011;63122;52.424;13.458;2023-04-24T02:48:15;8.60;;;6.00;;
41887;SDS011;63122;52.424;13.458;2023-04-24T02:50:10;8.73;;;5.50;;
41887;SDS011;63122;52.424;13.458;2023-04-24T02:52:05;6.60;;;5.77;;
41887;SDS011;63122;52.424;13.458;2023-04-24T02:54:01;10.77;;;6.10;;
41887;SDS011;63122;52.424;13.458;2023-04-24T02:55:58;7.20;;;5.90;;
41887;SDS011;63122;52.424;13.458;2023-04-24T02:57:53;6.50;;;5.57;;
41887;SDS011;63122;52.424;13.458;2023-04-24T02:59:48;6.83;;;5.90;;
41887;SDS011;63122;52.424;13.458;2023-04-24T03:01:44;7.70;;;6.30;;
41887;SDS011;63122;52.424;13.458;2023-04-24T03:03:39;9.13;;;6.10;;
41887;SDS011;63122;52.424;13.458;2023-04-24T03:05:37;18.27;;;7.90;;
41887;SDS011;63122;52.424;13.458;2023-04-24T03:07:32;9.70;;;6.40;;
41887;SDS011;63122;52.424;13.458;2023-04-24T03:09:28;7.13;;;6.20;;
41887;SDS011;63122;52.424;13.458;2023-04-24T03:11:26;8.77;;;6.27;;
41887;SDS011;63122;52.424;13.458;2023-04-24T03:13:21;7.00;;;6.10;;
41887;SDS011;63122;52.424;13.458;2023-04-24T03:15:16;9.73;;;6.53;;
41887;SDS011;63122;52.424;13.458;2023-04-24T03:17:12;9.80;;;6.37;;
41887;SDS011;63122;52.424;13.458;2023-04-24T03:19:07;6.97;;;6.27;;
41887;SDS011;63122;52.424;13.458;2023-04-24T03:21:02;8.37;;;5.97;;
41887;SDS011;63122;52.424;13.458;2023-04-24T03:22:58;9.33;;;6.20;;
41887;SDS011;63122;52.424;13.458;2023-04-24T03:24:53;8.20;;;6.73;;
41887;SDS011;63122;52.424;13.458;2023-04-24T03:26:51;9.70;;;6.10;;
41887;SDS011;63122;52.424;13.458;2023-04-24T03:28:48;8.13;;;6.77;;
41887;SDS011;63122;52.424;13.458;2023-04-24T03:30:43;7.83;;;6.63;;
41887;SDS011;63122;52.424;13.458;2023-04-24T03:32:38;15.63;;;6.80;;
41887;SDS011;63122;52.424;13.458;2023-04-24T03:34:33;10.07;;;7.13;;
41887;SDS011;63122;52.424;13.458;2023-04-24T03:36:29;18.37;;;6.37;;
41887;SDS011;63122;52.424;13.458;2023-04-24T03:38:24;8.30;;;6.00;;
41887;SDS011;63122;52.424;13.458;2023-04-24T03:40:20;9.63;;;6.40;;
41887;SDS011;63122;52.424;13.458;2023-04-24T03:42:17;7.90;;;6.23;;
41887;SDS011;63122;52.424;13.458;2023-04-24T03:44:13;7.87;;;6.40;;
41887;SDS011;63122;52.424;13.458;2023-04-24T03:46:10;7.30;;;6.00;;
41887;SDS011;63122;52.424;13.458;2023-04-24T03:48:07;8.53;;;6.17;;
41887;SDS011;63122;52.424;13.458;2023-04-24T03:50:02;13.83;;;6.27;;
41887;SDS011;63122;52.424;13.458;2023-04-24T03:51:58;7.33;;;6.37;;
41887;SDS011;63122;52.424;13.458;2023-04-24T03:53:53;6.80;;;6.00;;
41887;SDS011;63122;52.424;13.458;2023-04-24T03:55:49;8.10;;;6.23;;
41887;SDS011;63122;52.424;13.458;2023-04-24T03:57:46;7.23;;;5.87;;
41887;SDS011;63122;52.424;13.458;2023-04-24T03:59:42;9.40;;;5.73;;
41887;SDS011;63122;52.424;13.458;2023-04-24T04:01:37;7.63;;;6.23;;
41887;SDS011;63122;52.424;13.458;2023-04-24T04:03:35;7.93;;;5.97;;
41887;SDS011;63122;52.424;13.458;2023-04-24T04:05:30;9.47;;;6.30;;
41887;SDS011;63122;52.424;13.458;2023-04-24T04:07:26;10.50;;;6.57;;
41887;SDS011;63122;52.424;13.458;2023-04-24T04:09:21;10.10;;;5.93;;
41887;SDS011;63122;52.424;13.458;2023-04-24T04:11:16;9.27;;;6.07;;
41887;SDS011;63122;52.424;13.458;2023-04-24T04:13:14;7.03;;;6.17;;
41887;SDS011;63122;52.424;13.458;2023-04-24T04:15:10;9.27;;;6.47;;
41887;SDS011;63122;52.424;13.458;2023-04-24T04:17:05;7.73;;;5.90;;
41887;SDS011;63122;52.424;13.458;2023-04-24T04:19:00;9.90;;;6.43;;
41887;SDS011;63122;52.424;13.458;2023-04-24T04:20:55;9.20;;;7.33;;
41887;SDS011;63122;52.424;13.458;2023-04-24T04:22:53;8.47;;;5.87;;
41887;SDS011;63122;52.424;13.458;2023-04-24T04:24:48;6.83;;;6.07;;
41887;SDS011;63122;52.424;13.458;2023-04-24T04:26:43;9.43;;;6.60;;
41887;SDS011;63122;52.424;13.458;2023-04-24T04:28:45;10.33;;;7.00;;
41887;SDS011;63122;52.424;13.458;2023-04-24T04:30:41;12.87;;;10.23;;
41887;SDS011;63122;52.424;13.458;2023-04-24T04:32:38;11.33;;;6.50;;
41887;SDS011;63122;52.424;13.458;2023-04-24T04:34:35;8.43;;;6.83;;
41887;SDS011;63122;52.424;13.458;2023-04-24T04:36:31;6.67;;;5.97;;
41887;SDS011;63122;52.424;13.458;2023-04-24T04:38:29;11.63;;;8.87;;
41887;SDS011;63122;52.424;13.458;2023-04-24T04:40:25;10.27;;;7.63;;
41887;SDS011;63122;52.424;13.458;2023-04-24T04:42:22;13.17;;;6.07;;
41887;SDS011;63122;52.424;13.458;2023-04-24T04:44:19;9.60;;;6.57;;
41887;SDS011;63122;52.424;13.458;2023-04-24T04:46:15;9.67;;;6.20;;
41887;SDS011;63122;52.424;13.458;2023-04-24T04:48:12;9.23;;;5.73;;
41887;SDS011;63122;52.424;13.458;2023-04-24T04:50:09;6.90;;;5.53;;
41887;SDS011;63122;52.424;13.458;2023-04-24T04:52:05;6.97;;;5.73;;
41887;SDS011;63122;52.424;13.458;2023-04-24T04:54:00;10.07;;;5.80;;
41887;SDS011;63122;52.424;13.458;2023-04-24T04:55:56;6.50;;;5.20;;
41887;SDS011;63122;52.424;13.458;2023-04-24T04:57:51;7.43;;;5.50;;
41887;SDS011;63122;52.424;13.458;2023-04-24T04:59:50;7.07;;;5.23;;
41887;SDS011;63122;52.424;13.458;2023-04-24T05:01:45;8.87;;;5.57;;
41887;SDS011;63122;52.424;13.458;2023-04-24T05:03:43;8.73;;;5.70;;
41887;SDS011;63122;52.424;13.458;2023-04-24T05:05:39;9.80;;;5.23;;
41887;SDS011;63122;52.424;13.458;2023-04-24T05:07:35;7.97;;;5.20;;
41887;SDS011;63122;52.424;13.458;2023-04-24T05:09:30;7.80;;;5.73;;
41887;SDS011;63122;52.424;13.458;2023-04-24T05:11:26;9.30;;;5.60;;
41887;SDS011;63122;52.424;13.458;2023-04-24T05:13:22;13.30;;;5.20;;
41887;SDS011;63122;52.424;13.458;2023-04-24T05:15:32;7.93;;;5.20;;
41887;SDS011;63122;52.424;13.458;2023-04-24T05:17:28;5.27;;;4.40;;
41887;SDS011;63122;52.424;13.458;2023-04-24T05:19:23;7.63;;;4.57;;
41887;SDS011;63122;52.424;13.458;2023-04-24T05:21:19;4.70;;;3.97;;
41887;SDS011;63122;52.424;13.458;2023-04-24T05:23:15;6.30;;;4.10;;
41887;SDS011;63122;52.424;13.458;2023-04-24T05:25:11;6.60;;;3.90;;
41887;SDS011;63122;52.424;13.458;2023-04-24T05:27:06;5.10;;;3.83;;
41887;SDS011;63122;52.424;13.458;2023-04-24T05:29:02;3.77;;;3.33;;
41887;SDS011;63122;52.424;13.458;2023-04-24T05:31:00;3.83;;;3.23;;
41887;SDS011;63122;52.424;13.458;2023-04-24T05:32:55;4.77;;;3.20;;
41887;SDS011;63122;52.424;13.458;2023-04-24T05:34:53;4.80;;;3.50;;
41887;SDS011;63122;52.424;13.458;2023-04-24T05:36:48;3.40;;;3.10;;
41887;SDS011;63122;52.424;13.458;2023-04-24T05:38:43;8.33;;;3.13;;
41887;SDS011;63122;52.424;13.458;2023-04-24T05:40:39;5.20;;;3.20;;
41887;SDS011;63122;52.424;13.458;2023-04-24T05:42:34;8.90;;;2.90;;
41887;SDS011;63122;52.424;13.458;2023-04-24T05:44:30;6.33;;;3.17;;
41887;SDS011;63122;52.424;13.458;2023-04-24T05:46:27;3.93;;;3.07;;
41887;SDS011;63122;52.424;13.458;2023-04-24T05:48:23;5.40;;;3.00;;
41887;SDS011;63122;52.424;13.458;2023-04-24T05:50:18;6.33;;;4.40;;
41887;SDS011;63122;52.424;13.458;2023-04-24T05:52:13;3.93;;;3.33;;
41887;SDS011;63122;52.424;13.458;2023-04-24T05:54:08;5.03;;;2.93;;
41887;SDS011;63122;52.424;13.458;2023-04-24T05:56:04;3.60;;;3.07;;
41887;SDS011;63122;52.424;13.458;2023-04-24T05:58:00;10.20;;;3.50;;
41887;SDS011;63122;52.424;13.458;2023-04-24T05:59:55;3.97;;;2.93;;
41887;SDS011;63122;52.424;13.458;2023-04-24T06:01:53;7.93;;;2.80;;
41887;SDS011;63122;52.424;13.458;2023-04-24T06:03:48;4.50;;;2.77;;
41887;SDS011;63122;52.424;13.458;2023-04-24T06:05:44;6.10;;;3.20;;
41887;SDS011;63122;52.424;13.458;2023-04-24T06:07:40;7.67;;;2.97;;
41887;SDS011;63122;52.424;13.458;2023-04-24T06:09:35;4.60;;;3.00;;
41887;SDS011;63122;52.424;13.458;2023-04-24T06:11:31;5.20;;;2.93;;
41887;SDS011;63122;52.424;13.458;2023-04-24T06:13:26;4.23;;;2.97;;
41887;SDS011;63122;52.424;13.458;2023-04-24T06:15:22;7.43;;;2.90;;
41887;SDS011;63122;52.424;13.458;2023-04-24T06:17:19;6.37;;;2.20;;
41887;SDS011;63122;52.424;13.458;2023-04-24T06:19:15;7.03;;;1.90;;
41887;SDS011;63122;52.424;13.458;2023-04-24T06:21:10;3.33;;;2.20;;
41887;SDS011;63122;52.424;13.458;2023-04-24T06:23:05;2.80;;;2.20;;
41887;SDS011;63122;52.424;13.458;2023-04-24T06:25:00;5.00;;;2.17;;
41887;SDS011;63122;52.424;13.458;2023-04-24T06:26:56;2.50;;;2.20;;
41887;SDS011;63122;52.424;13.458;2023-04-24T06:28:53;3.20;;;2.00;;
41887;SDS011;63122;52.424;13.458;2023-04-24T06:30:52;5.50;;;2.37;;
41887;SDS011;63122;52.424;13.458;2023-04-24T06:32:50;6.03;;;2.20;;
41887;SDS011;63122;52.424;13.458;2023-04-24T06:34:51;1.47;;;1.33;;
41887;SDS011;63122;52.424;13.458;2023-04-24T06:36:49;6.43;;;1.90;;
41887;SDS011;63122;52.424;13.458;2023-04-24T06:38:44;11.70;;;1.90;;
41887;SDS011;63122;52.424;13.458;2023-04-24T06:40:39;7.37;;;1.80;;
41887;SDS011;63122;52.424;13.458;2023-04-24T06:42:35;2.90;;;1.60;;
41887;SDS011;63122;52.424;13.458;2023-04-24T06:44:30;2.20;;;1.60;;
41887;SDS011;63122;52.424;13.458;2023-04-24T06:46:29;5.97;;;1.90;;
41887;SDS011;63122;52.424;13.458;2023-04-24T06:48:27;4.00;;;1.80;;
41887;SDS011;63122;52.424;13.458;2023-04-24T06:50:23;6.90;;;1.77;;
41887;SDS011;63122;52.424;13.458;2023-04-24T06:52:18;1.63;;;1.50;;
41887;SDS011;63122;52.424;13.458;2023-04-24T06:54:14;6.27;;;1.73;;
41887;SDS011;63122;52.424;13.458;2023-04-24T06:56:09;3.57;;;1.83;;
41887;SDS011;63122;52.424;13.458;2023-04-24T06:58:05;3.50;;;1.50;;
41887;SDS011;63122;52.424;13.458;2023-04-24T07:00:00;4.47;;;1.50;;
41887;SDS011;63122;52.424;13.458;2023-04-24T07:01:57;4.60;;;1.73;;
41887;SDS011;63122;52.424;13.458;2023-04-24T07:03:54;4.13;;;1.60;;
41887;SDS011;63122;52.424;13.458;2023-04-24T07:05:50;3.83;;;1.20;;
41887;SDS011;63122;52.424;13.458;2023-04-24T07:07:45;2.47;;;1.40;;
41887;SDS011;63122;52.424;13.458;2023-04-24T07:09:41;1.63;;;1.30;;
41887;SDS011;63122;52.424;13.458;2023-04-24T07:11:37;2.00;;;1.10;;
41887;SDS011;63122;52.424;13.458;2023-04-24T07:13:33;2.13;;;1.43;;
41887;SDS011;63122;52.424;13.458;2023-04-24T07:15:28;3.73;;;1.43;;
41887;SDS011;63122;52.424;13.458;2023-04-24T07:17:24;4.80;;;1.60;;
41887;SDS011;63122;52.424;13.458;2023-04-24T07:19:22;4.07;;;2.57;;
41887;SDS011;63122;52.424;13.458;2023-04-24T07:21:17;3.47;;;1.10;;
41887;SDS011;63122;52.424;13.458;2023-04-24T07:23:12;1.97;;;1.27;;
41887;SDS011;63122;52.424;13.458;2023-04-24T07:25:08;3.53;;;1.50;;
41887;SDS011;63122;52.424;13.458;2023-04-24T07:27:04;1.63;;;1.20;;
41887;SDS011;63122;52.424;13.458;2023-04-24T07:29:00;4.15;;;1.40;;
41887;SDS011;63122;52.424;13.458;2023-04-24T07:30:55;2.50;;;1.33;;
41887;SDS011;63122;52.424;13.458;2023-04-24T07:32:52;1.97;;;1.30;;
41887;SDS011;63122;52.424;13.458;2023-04-24T07:34:50;3.83;;;1.50;;
41887;SDS011;63122;52.424;13.458;2023-04-24T07:36:46;2.13;;;1.10;;
41887;SDS011;63122;52.424;13.458;2023-04-24T07:38:41;10.20;;;1.67;;
41887;SDS011;63122;52.424;13.458;2023-04-24T07:40:37;2.50;;;1.03;;
41887;SDS011;63122;52.424;13.458;2023-04-24T07:42:32;1.30;;;1.20;;
41887;SDS011;63122;52.424;13.458;2023-04-24T07:44:29;2.47;;;1.17;;
41887;SDS011;63122;52.424;13.458;2023-04-24T07:46:24;2.00;;;1.20;;
41887;SDS011;63122;52.424;13.458;2023-04-24T07:48:22;15.00;;;2.30;;
41887;SDS011;63122;52.424;13.458;2023-04-24T07:50:21;3.87;;;1.20;;
41887;SDS011;63122;52.424;13.458;2023-04-24T07:52:17;3.17;;;1.20;;
41887;SDS011;63122;52.424;13.458;2023-04-24T07:54:12;2.67;;;1.70;;
41887;SDS011;63122;52.424;13.458;2023-04-24T07:56:08;1.63;;;1.23;;
41887;SDS011;63122;52.424;13.458;2023-04-24T07:58:06;7.20;;;1.35;;
41887;SDS011;63122;52.424;13.458;2023-04-24T08:00:02;2.60;;;1.30;;
41887;SDS011;63122;52.424;13.458;2023-04-24T08:01:58;2.95;;;1.50;;
41887;SDS011;63122;52.424;13.458;2023-04-24T08:03:54;3.58;;;1.38;;
41887;SDS011;63122;52.424;13.458;2023-04-24T08:05:52;2.40;;;1.20;;
41887;SDS011;63122;52.424;13.458;2023-04-24T08:07:48;3.55;;;1.08;;
41887;SDS011;63122;52.424;13.458;2023-04-24T08:09:44;4.80;;;1.17;;
41887;SDS011;63122;52.424;13.458;2023-04-24T08:11:40;1.90;;;1.20;;
41887;SDS011;63122;52.424;13.458;2023-04-24T08:13:35;6.95;;;1.00;;
41887;SDS011;63122;52.424;13.458;2023-04-24T08:15:31;1.13;;;0.80;;
41887;SDS011;63122;52.424;13.458;2023-04-24T08:17:26;3.85;;;0.85;;
41887;SDS011;63122;52.424;13.458;2023-04-24T08:19:25;1.48;;;0.90;;
41887;SDS011;63122;52.424;13.458;2023-04-24T08:21:23;1.08;;;0.98;;
41887;SDS011;63122;52.424;13.458;2023-04-24T08:23:19;3.33;;;1.00;;
41887;SDS011;63122;52.424;13.458;2023-04-24T08:25:14;0.90;;;0.70;;
41887;SDS011;63122;52.424;13.458;2023-04-24T08:27:11;0.77;;;0.68;;
41887;SDS011;63122;52.424;13.458;2023-04-24T08:29:07;1.40;;;1.10;;
41887;SDS011;63122;52.424;13.458;2023-04-24T08:31:03;4.30;;;0.80;;
41887;SDS011;63122;52.424;13.458;2023-04-24T08:32:58;1.60;;;0.90;;
41887;SDS011;63122;52.424;13.458;2023-04-24T08:34:54;10.65;;;1.20;;
41887;SDS011;63122;52.424;13.458;2023-04-24T08:36:52;1.00;;;0.90;;
41887;SDS011;63122;52.424;13.458;2023-04-24T08:38:48;7.97;;;0.82;;
41887;SDS011;63122;52.424;13.458;2023-04-24T08:40:44;4.25;;;1.00;;
41887;SDS011;63122;52.424;13.458;2023-04-24T08:42:42;2.65;;;0.80;;
41887;SDS011;63122;52.424;13.458;2023-04-24T08:44:39;1.95;;;1.13;;
41887;SDS011;63122;52.424;13.458;2023-04-24T08:46:37;6.43;;;1.10;;
41887;SDS011;63122;52.424;13.458;2023-04-24T08:48:37;3.33;;;0.73;;
41887;SDS011;63122;52.424;13.458;2023-04-24T08:50:36;43.15;;;2.08;;
41887;SDS011;63122;52.424;13.458;2023-04-24T08:52:39;3.38;;;1.10;;
41887;SDS011;63122;52.424;13.458;2023-04-24T08:54:38;1.08;;;0.80;;
41887;SDS011;63122;52.424;13.458;2023-04-24T08:56:36;2.10;;;0.90;;
41887;SDS011;63122;52.424;13.458;2023-04-24T08:58:34;3.25;;;0.90;;
41887;SDS011;63122;52.424;13.458;2023-04-24T09:00:30;1.67;;;1.05;;
41887;SDS011;63122;52.424;13.458;2023-04-24T09:02:26;2.92;;;0.93;;
41887;SDS011;63122;52.424;13.458;2023-04-24T09:04:24;2.30;;;0.82;;
41887;SDS011;63122;52.424;13.458;2023-04-24T09:06:20;2.05;;;0.93;;
41887;SDS011;63122;52.424;13.458;2023-04-24T09:08:19;1.50;;;0.80;;
41887;SDS011;63122;52.424;13.458;2023-04-24T09:10:18;1.60;;;0.90;;
41887;SDS011;63122;52.424;13.458;2023-04-24T09:12:14;1.40;;;0.95;;
41887;SDS011;63122;52.424;13.458;2023-04-24T09:14:10;1.83;;;0.88;;
41887;SDS011;63122;52.424;13.458;2023-04-24T09:16:06;2.10;;;1.08;;
41887;SDS011;63122;52.424;13.458;2023-04-24T09:18:01;1.45;;;0.80;;
41887;SDS011;63122;52.424;13.458;2023-04-24T09:19:57;4.32;;;0.98;;
41887;SDS011;63122;52.424;13.458;2023-04-24T09:21:52;1.35;;;0.73;;
41887;SDS011;63122;52.424;13.458;2023-04-24T09:24:02;1.27;;;0.90;;
41887;SDS011;63122;52.424;13.458;2023-04-24T09:26:03;5.05;;;1.00;;
41887;SDS011;63122;52.424;13.458;2023-04-24T09:28:01;1.08;;;0.90;;
41887;SDS011;63122;52.424;13.458;2023-04-24T09:30:00;1.25;;;0.90;;
41887;SDS011;63122;52.424;13.458;2023-04-24T09:31:59;3.67;;;1.20;;
41887;SDS011;63122;52.424;13.458;2023-04-24T09:34:19;3.30;;;1.40;;
41887;SDS011;63122;52.424;13.458;2023-04-24T09:36:19;2.13;;;1.40;;
41887;SDS011;63122;52.424;13.458;2023-04-24T09:38:30;2.42;;;1.00;;
41887;SDS011;63122;52.424;13.458;2023-04-24T09:40:30;3.30;;;1.20;;
41887;SDS011;63122;52.424;13.458;2023-04-24T09:42:33;1.42;;;0.80;;
41887;SDS011;63122;52.424;13.458;2023-04-24T09:44:28;3.10;;;0.70;;
41887;SDS011;63122;52.424;13.458;2023-04-24T09:46:29;1.38;;;0.80;;
41887;SDS011;63122;52.424;13.458;2023-04-24T09:48:31;1.20;;;0.90;;
41887;SDS011;63122;52.424;13.458;2023-04-24T09:50:29;0.90;;;0.70;;
41887;SDS011;63122;52.424;13.458;2023-04-24T09:52:26;3.97;;;0.80;;
41887;SDS011;63122;52.424;13.458;2023-04-24T09:54:21;1.23;;;0.80;;
41887;SDS011;63122;52.424;13.458;2023-04-24T09:56:20;1.40;;;0.60;;
41887;SDS011;63122;52.424;13.458;2023-04-24T09:58:15;2.15;;;0.80;;
41887;SDS011;63122;52.424;13.458;2023-04-24T10:00:11;1.95;;;0.80;;
41887;SDS011;63122;52.424;13.458;2023-04-24T10:02:16;1.35;;;0.90;;
41887;SDS011;63122;52.424;13.458;2023-04-24T10:04:16;2.88;;;0.70;;
41887;SDS011;63122;52.424;13.458;2023-04-24T10:06:12;0.98;;;0.70;;
41887;SDS011;63122;52.424;13.458;2023-04-24T10:08:08;3.67;;;0.90;;
41887;SDS011;63122;52.424;13.458;2023-04-24T10:10:05;1.80;;;0.90;;
41887;SDS011;63122;52.424;13.458;2023-04-24T10:12:06;2.40;;;1.10;;
41887;SDS011;63122;52.424;13.458;2023-04-24T10:14:02;4.45;;;0.82;;
41887;SDS011;63122;52.424;13.458;2023-04-24T10:15:58;3.25;;;0.82;;
41887;SDS011;63122;52.424;13.458;2023-04-24T10:17:55;4.40;;;0.90;;
41887;SDS011;63122;52.424;13.458;2023-04-24T10:19:53;2.40;;;0.80;;
41887;SDS011;63122;52.424;13.458;2023-04-24T10:21:50;2.40;;;0.90;;
41887;SDS011;63122;52.424;13.458;2023-04-24T10:23:46;3.78;;;0.90;;
41887;SDS011;63122;52.424;13.458;2023-04-24T10:25:43;1.48;;;1.00;;
41887;SDS011;63122;52.424;13.458;2023-04-24T10:27:41;2.65;;;0.90;;
41887;SDS011;63122;52.424;13.458;2023-04-24T10:29:37;2.50;;;0.82;;
41887;SDS011;63122;52.424;13.458;2023-04-24T10:31:36;1.40;;;0.90;;
41887;SDS011;63122;52.424;13.458;2023-04-24T10:33:32;0.90;;;0.68;;
41887;SDS011;63122;52.424;13.458;2023-04-24T10:35:29;2.63;;;1.00;;
41887;SDS011;63122;52.424;13.458;2023-04-24T10:37:26;3.55;;;1.13;;
41887;SDS011;63122;52.424;13.458;2023-04-24T10:39:28;2.45;;;1.05;;
41887;SDS011;63122;52.424;13.458;2023-04-24T10:42:03;2.58;;;0.95;;
41887;SDS011;63122;52.424;13.458;2023-04-24T10:44:49;1.73;;;1.20;;
41887;SDS011;63122;52.424;13.458;2023-04-24T10:46:52;1.83;;;1.10;;
41887;SDS011;63122;52.424;13.458;2023-04-24T10:48:52;1.75;;;1.10;;
41887;SDS011;63122;52.424;13.458;2023-04-24T10:50:52;4.90;;;1.10;;
41887;SDS011;63122;52.424;13.458;2023-04-24T10:52:48;2.20;;;1.27;;
41887;SDS011;63122;52.424;13.458;2023-04-24T10:54:47;1.42;;;1.00;;
41887;SDS011;63122;52.424;13.458;2023-04-24T10:56:42;5.78;;;1.33;;
41887;SDS011;63122;52.424;13.458;2023-04-24T10:58:38;9.60;;;1.20;;
41887;SDS011;63122;52.424;13.458;2023-04-24T11:00:40;2.30;;;1.08;;
41887;SDS011;63122;52.424;13.458;2023-04-24T11:02:37;4.47;;;1.02;;
41887;SDS011;63122;52.424;13.458;2023-04-24T11:04:41;2.83;;;0.90;;
41887;SDS011;63122;52.424;13.458;2023-04-24T11:06:39;2.35;;;1.23;;
41887;SDS011;63122;52.424;13.458;2023-04-24T11:08:38;2.63;;;1.15;;
41887;SDS011;63122;52.424;13.458;2023-04-24T11:10:38;4.20;;;1.10;;
41887;SDS011;63122;52.424;13.458;2023-04-24T11:12:34;1.67;;;1.10;;
41887;SDS011;63122;52.424;13.458;2023-04-24T11:14:30;2.30;;;1.00;;
41887;SDS011;63122;52.424;13.458;2023-04-24T11:16:50;6.53;;;1.85;;
41887;SDS011;63122;52.424;13.458;2023-04-24T11:18:50;2.30;;;1.20;;
41887;SDS011;63122;52.424;13.458;2023-04-24T11:20:46;4.57;;;2.00;;
41887;SDS011;63122;52.424;13.458;2023-04-24T11:22:41;3.05;;;1.20;;
41887;SDS011;63122;52.424;13.458;2023-04-24T11:24:38;3.08;;;1.00;;
41887;SDS011;63122;52.424;13.458;2023-04-24T11:26:35;1.70;;;1.35;;
41887;SDS011;63122;52.424;13.458;2023-04-24T11:28:34;2.08;;;0.95;;
41887;SDS011;63122;52.424;13.458;2023-04-24T11:30:32;2.17;;;1.55;;
41887;SDS011;63122;52.424;13.458;2023-04-24T11:32:39;1.23;;;1.10;;
41887;SDS011;63122;52.424;13.458;2023-04-24T11:34:39;6.97;;;2.20;;